Warning: Javascript must be enabled to use all the features on this page!


Page Loading - Please Wait...

Click to hideNews Bulletins
  • Have your voice heard. Have a few minutes? We're surveying users about their experience with Water Data for the Nation (WDFN). Please take a few minutes to complete our online survey.
  • See the Water Data for the Nation Blog for the latest news and updates.

Peak Streamflow for the Nation

USGS 09358550 CEMENT CREEK AT SILVERTON, CO

San Juan County, Colorado
Hydrologic Unit Code 14080104
Latitude  37°49'11", Longitude 107°39'47" NAD27
Drainage area 20.1  square miles
Gage datum 9,380 feet above NGVD29
Output formats
Table
Graph
Tab-separated file
peakfq (watstore) format
Reselect output format
Water
Year
Date Gage
Height
(feet)
Stream-
flow
(cfs)
1992 1992-05-20 2.022 1415
1993 1993-06-01 2.58 3375
1995 1995-06-14 2.85 4715
1996 1996-05-16 2.57 3335
1997 1997-06-01 2.69 3855
1998 1998-06-02 2.052 2465
1999 1999-06-13 2.12 2355
2000 2000-05-29 2.12 2525
2001 2001-05-20 2.14 2595
2002 2002-05-20 1.362 65.05
2003 2003-05-28 2.26 3005
2004 2004-06-07 2.062 2345
2005 2005-05-22 2.472 5415
2006 2006-05-24 2.112 2875
2007 2006-10-07 2.242 3625
2008 2008-05-20 2.462 3995
2009 2009-05-12 2.342 3825
2010 2010-05-28 2.33 3785
2011 2011-06-16 2.542 5105
2012 2012-05-04 1.70 1175
2013 2013-05-17 2.052 2435
2014 2014-06-01 2.48 4065
2015 2015-06-10 2.40 3715
2016 2016-06-05 2.38 3955
2017 2017-06-10 2.33 3265
2018 2018-05-10 1.96 1455
2019 2019-06-28 2.77 5245
2020 2020-06-06 2.33 2745
2021 2021-06-04 2.15 2095
2022 2022-05-15 2.152 1765
?
  Peak Gage-Height Qualification Codes.
?
  Peak Streamflow Qualification Codes.